ADDS METAR Data INFO
IDs: Format: Raw Decoded Include TAF

Data at: 0447 UTC 22 Apr 2018

METAR for:KFFO (Wright-Patterson AFB, OH, US)
Text:KFFO 220356Z AUTO 03006KT 10SM OVC150 09/M05 A3034 RMK AO2 SLP280 T00851047 $
Temperature: 8.5°C ( 47°F)
Dewpoint: -4.7°C ( 24°F) [RH = 39%]
Pressure (altimeter):30.34 inches Hg (1027.5 mb) [Sea level pressure: 1028.0 mb]
Winds:from the NNE (30 degrees) at 7 MPH (6 knots; 3.1 m/s)
Visibility:10 or more sm (16+ km)
Ceiling:15000 feet AGL
Clouds: overcast cloud deck at 15000 feet AGL
QC Flag:automated observation with no human augmentation; SOME DATA ABOVE MAY BE INACCURATE!!!"$" is an indication the sensor requires maintenance.